Portada
METAR-TAF:

METAR-TAF

Aeroports :

Loei, Tailàndia

latitud: 17-27N, longitud: 101-44E, altitud: 253 m

Observació

L'informe es va fer fa 8 hores i 5 minuts, a les 12:00 UTC
Vent calma
Temperatura 25°C
Humitat 94%
Pressió 1009 hPa
Visibilitat 10 km o més
Escasses núvols a una alçada de 3000 ft

METAR: VTUL 071200Z 00000KT 9999 FEW030 25/24 Q1009 NOSIG

Hora: 03:05 (20:05 UTC)

Pronòstic

L'informe es va fer fa 3 hores i 5 minuts, a les 17:00 UTC
Pronòstic vàlid del 07 a les 18 UTC al 08 a les 18 UTC
Vent 2 kt del Oest/Sud-Oest
Visibilitat: 8000 m
Escasses núvols a una alçada de 3000 ft
Temporalment
l' 08 a les 06 UTC al 08 a les 13 UTC
Visibilitat: 5000 m
Escasses núvols a una alçada de 1800 ft, Cumulonimbus.
Cel ennuvolat a una alçada de 3000 ft
tempesta, pluja

TAF: VTUL 071700Z 0718/0818 25002KT 8000 FEW030 TEMPO 0806/0813 5000 TSRA FEW018CB BKN030

Observacions i pronòstics meteorològics de més de 4000 aeroports (METAR i TAF).

Les estacions disponibles són els punts grocs i vermells al mapa.

Posi el ratolí al punt desitjat per veure el nom de l'estació.

Feu clic per veure les observacions i els pronòstics meteorològics.

Per canviar el mapa: feu clic els botons verds amb una creu de color negre per apropar; al botó verd amb un guió per allunyar la imatge; o en les fletxes verdes per a mapes adjacents.


METAR-TAF: